Flight Track Log - Related Links

Times and Time Zones

All times are in EDT time to prevent confusion due to time zone crossing. See the AWE1710 flight status page for this flight to view local times or setup timezone preferences in your user account.

Time Position Orientation Groundspeed Altitude Reporting Facility
EDT Latitude Longitude Course Direction KTS MPH feet Rate Location/Type
Fri 08:02:40 AM 39.8590 -104.6790 55° Northeast  Level FlightAware ADS-B
Fri 08:06:54 AM 39.8590 -104.6790 111° Southeast 102 Level FlightAware ADS-B
Fri 08:09:00 AM 39.8302 -104.3481 90° East  Level Estimated
Fri 08:13:00 AM 39.8341 -104.3911 90° East  Level Estimated
Fri 08:21:00 AM 39.8285 -104.3281 90° East  Level Estimated
Fri 08:22:00 AM 39.8613 -104.1753 74° East  Level FlightAware Approximate
Fri 08:22:26 AM 39.8590 -104.6800 74° East  Level FlightAware ADS-B
Fri 08:25:00 AM 39.8236 -104.2756 90° East  Level Estimated
Fri 08:25:37 AM 39.8590 -104.6790 90° East  Level FlightAware ADS-B
Fri 08:28:00 AM 39.8262 -104.3034 90° East  Level Estimated
Fri 08:29:00 AM 39.8121 -104.1460 90° East  Level Estimated
Fri 08:30:00 AM 39.7977 -103.9886 90° East  Level Estimated
Fri 08:31:00 AM 39.7832 -103.8312 90° East  Level Estimated
Fri 08:32:00 AM 39.7684 -103.6740 83° East  Level Estimated
Fri 08:33:00 AM 39.7534 -103.5167 82° East  Level Estimated
Fri 08:34:00 AM 39.8311 -103.3947 50° Northeast  Level FlightAware Approximate
Fri 08:35:00 AM 39.8152 -103.2375 85° East  Level Estimated
Fri 08:36:00 AM 39.8877 -103.1100 53° Northeast  Level FlightAware Approximate
Fri 08:37:00 AM 39.8708 -102.9529 81° East  Level Estimated
Fri 08:38:00 AM 39.8537 -102.7958 81° East  Level Estimated
Fri 08:39:00 AM 39.9155 -102.6590 60° Northeast  Level FlightAware Approximate
Fri 08:40:00 AM 39.8975 -102.5020 83° East  Level Estimated
Fri 08:50:28 AM 39.8610 -104.6710 84° East 30 35  Level FlightAware ADS-B
Fri 08:51:26 AM 39.8620 -104.6640 79° East 32 37 708 Level FlightAware ADS-B
Fri 08:52:36 AM 39.8610 -104.6650 218° Southwest 15 17 805 Level FlightAware ADS-B
Fri 08:53:14 AM 39.8620 -104.6630 57° Northeast 28 32 963 Level FlightAware ADS-B
Fri 08:53:42 AM 39.8630 -104.6630 360° North 15 17 1,079 Level FlightAware ADS-B
Fri 08:54:09 AM 39.8650 -104.6630 360° North 28 32 1,183 Level FlightAware ADS-B
Fri 08:54:40 AM 39.8650 -104.6610 90° East 33 38 1,305 Level FlightAware ADS-B
Fri 08:55:12 AM 39.8650 -104.6580 90° East 18 21 1,481 Level FlightAware ADS-B
Fri 08:57:00 AM 39.8667 -104.3820 90° East  Level FlightAware Approximate
Fri 08:58:00 AM 39.8667 -104.2279 90° East  Level FlightAware Approximate
Fri 08:58:31 AM 39.8326 -104.6420 90° East 176 203 5,700  Level FlightAware ADS-B
Fri 08:58:34 AM 39.8300 -104.6410 164° South 178 205 5,800 2,000 Climbing FlightAware ADS-B
Fri 08:58:37 AM 39.8273 -104.6410 180° South 179 206 5,900 2,250 Climbing FlightAware ADS-B
Fri 08:58:42 AM 39.8237 -104.6400 168° South 177 204 6,100 2,667 Climbing FlightAware ADS-B
Fri 08:58:46 AM 39.8202 -104.6380 156° South 177 204 6,300 2,667 Climbing FlightAware ADS-B
Fri 08:58:51 AM 39.8173 -104.6360 152° Southeast 178 205 6,500 1,636 Climbing FlightAware ADS-B
Fri 08:59:08 AM 39.8052 -104.6250 145° Southeast 184 212 6,900 1,125 Climbing FlightAware ADS-B
Fri 08:59:23 AM 39.7944 -104.6140 142° Southeast 197 227 7,100 750 Climbing FlightAware ADS-B
Fri 08:59:40 AM 39.7819 -104.6020 144° Southeast 213 245 7,300 909 Climbing FlightAware ADS-B
Fri 08:59:56 AM 39.7691 -104.5890 142° Southeast 228 262 7,600 938 Climbing FlightAware ADS-B
Fri 09:00:12 AM 39.7550 -104.5750 143° Southeast 242 278 7,800 938 Climbing FlightAware ADS-B
Fri 09:00:28 AM 39.7402 -104.5600 142° Southeast 259 298 8,100 1,125 Climbing FlightAware ADS-B
Fri 09:00:44 AM 39.7240 -104.5440 143° Southeast 274 315 8,400 1,200 Climbing FlightAware ADS-B
Fri 09:00:53 AM 39.7153 -104.5350 141° Southeast 283 326 8,600 1,000 Climbing FlightAware ADS-B
Fri 09:00:56 AM 39.7122 -104.5320 143° Southeast 286 329 8,600 1,333 Level FlightAware ADS-B
Fri 09:01:02 AM 39.7069 -104.5240 131° Southeast 290 334 8,800 1,800 Climbing FlightAware ADS-B
Fri 09:01:06 AM 39.7035 -104.5170 122° Southeast 292 336 8,900 1,500 Climbing FlightAware ADS-B
Fri 09:01:10 AM 39.7016 -104.5120 116° Southeast 294 338 9,000 1,714 Climbing FlightAware ADS-B
Fri 09:01:13 AM 39.6999 -104.5070 114° Southeast 294 338 9,100 3,000 Climbing FlightAware ADS-B
Fri 09:01:16 AM 39.6987 -104.5020 107° East 294 338 9,300 2,250 Climbing FlightAware ADS-B
Fri 09:01:21 AM 39.6979 -104.4930 97° East 294 338 9,400 2,000 Climbing FlightAware ADS-B
Fri 09:01:25 AM 39.6976 -104.4850 93° East 294 338 9,600 3,000 Climbing FlightAware ADS-B
Fri 09:01:29 AM 39.6983 -104.4790 81° East 293 337 9,800 2,571 Climbing FlightAware ADS-B
Fri 09:01:32 AM 39.6991 -104.4730 80° East 294 338 9,900 2,250 Climbing FlightAware ADS-B
Fri 09:01:37 AM 39.7010 -104.4650 73° East 294 338 10,100 2,667 Climbing FlightAware ADS-B
Fri 09:01:41 AM 39.7036 -104.4590 61° Northeast 294 338 10,300 2,167 Climbing FlightAware ADS-B
Fri 09:02:13 AM 39.7258 -104.4110 59° Northeast 300 345 11,400 2,000 Climbing FlightAware ADS-B
Fri 09:02:23 AM 39.7332 -104.3950 59° Northeast 303 349 11,700 1,895 Climbing FlightAware ADS-B
Fri 09:02:32 AM 39.7380 -104.3790 69° East 307 353 12,000 2,000 Climbing FlightAware ADS-B
Fri 09:03:02 AM 39.7507 -104.3250 73° East 318 366 13,000 2,066 Climbing FlightAware ADS-B
Fri 09:03:33 AM 39.7638 -104.2680 73° East 322 371 14,100 1,574 Climbing FlightAware ADS-B
Fri 09:04:03 AM 39.7767 -104.2100 74° East 346 398 14,600 885 Climbing FlightAware ADS-B
Fri 09:04:34 AM 39.7912 -104.1470 73° East 372 428 15,000 800 Climbing FlightAware ADS-B
Fri 09:05:03 AM 39.8056 -104.0830 74° East 394 453 15,400 1,017 Climbing FlightAware ADS-B
Fri 09:05:33 AM 39.8211 -104.0130 74° East 403 464 16,000 1,600 Climbing FlightAware ADS-B
Fri 09:06:03 AM 39.8374 -103.9420 73° East 405 466 17,000 2,000 Climbing FlightAware ADS-B
Fri 09:06:33 AM 39.8534 -103.8710 74° East 409 471 18,000 1,672 Climbing FlightAware ADS-B
Fri 09:07:04 AM 39.8697 -103.7980 74° East 416 479 18,700 1,440 Climbing FlightAware ADS-B
Fri 09:07:23 AM 39.8797 -103.7520 74° East 422 486 19,200 1,500 Climbing FlightAware ADS-B
Fri 09:07:36 AM 39.8849 -103.7210 78° East 426 490 19,500 1,535 Climbing FlightAware ADS-B
Fri 09:08:06 AM 39.8941 -103.6440 81° East 432 497 20,300 1,400 Climbing FlightAware ADS-B
Fri 09:08:36 AM 39.9031 -103.5650 82° East 438 504 20,900 1,400 Climbing FlightAware ADS-B
Fri 09:09:06 AM 39.9121 -103.4860 82° East 441 507 21,700 1,500 Climbing FlightAware ADS-B
Fri 09:09:36 AM 39.9211 -103.4070 82° East 444 511 22,400 1,279 Climbing FlightAware ADS-B
Fri 09:10:07 AM 39.9304 -103.3270 81° East 450 518 23,000 1,180 Climbing FlightAware ADS-B
Fri 09:10:37 AM 39.9393 -103.2450 82° East 455 524 23,600 1,200 Climbing FlightAware ADS-B
Fri 09:11:07 AM 39.9486 -103.1630 82° East 459 528 24,200 1,180 Climbing FlightAware ADS-B
Fri 09:11:38 AM 39.9579 -103.0790 82° East 463 533 24,800 1,082 Climbing FlightAware ADS-B
Fri 09:12:08 AM 39.9670 -102.9960 82° East 469 540 25,300 800 Climbing FlightAware ADS-B
Fri 09:12:38 AM 39.9763 -102.9110 82° East 477 549 25,600 800 Climbing FlightAware ADS-B
Fri 09:13:08 AM 39.9857 -102.8250 82° East 483 556 26,100 1,000 Climbing FlightAware ADS-B
Fri 09:13:38 AM 39.9949 -102.7380 82° East 486 559 26,600 787 Climbing FlightAware ADS-B
Fri 09:14:09 AM 40.0045 -102.6480 82° East 494 568 26,900 677 Climbing FlightAware ADS-B
Fri 09:14:40 AM 40.0142 -102.5560 82° East 499 574 27,300 787 Climbing FlightAware ADS-B
Fri 09:15:10 AM 40.0237 -102.4660 82° East 502 578 27,700 800 Climbing FlightAware ADS-B
Fri 09:15:40 AM 40.0333 -102.3750 82° East 504 580 28,100 885 Climbing FlightAware ADS-B
Fri 09:16:11 AM 40.0425 -102.2840 82° East 507 583 28,600 1,082 Climbing FlightAware ADS-B
Fri 09:16:41 AM 40.0518 -102.1920 82° East 505 581 29,200 1,100 Climbing FlightAware ADS-B
Fri 09:17:11 AM 40.0611 -102.1020 82° East 504 580 29,700 900 Climbing FlightAware ADS-B
Fri 09:17:41 AM 40.0705 -102.0100 82° East 505 581 30,100 871 Climbing FlightAware ADS-B
Fri 09:18:13 AM 40.0798 -101.9150 83° East 506 582 30,600 871 Climbing FlightAware ADS-B
Fri 09:18:43 AM 40.0890 -101.8230 83° East 507 583 31,000 800 Climbing FlightAware ADS-B
Fri 09:19:13 AM 40.0980 -101.7320 83° East 507 583 31,400 900 Climbing FlightAware ADS-B
Fri 09:19:43 AM 40.1069 -101.6400 83° East 506 582 31,900 885 Climbing FlightAware ADS-B
Fri 09:20:14 AM 40.1156 -101.5490 83° East 505 581 32,300 787 Climbing FlightAware ADS-B
Fri 09:20:44 AM 40.1244 -101.4580 83° East 504 580 32,700 700 Climbing FlightAware ADS-B
Fri 09:21:14 AM 40.1331 -101.3660 83° East 507 583 33,000 787 Climbing FlightAware ADS-B
Fri 09:21:45 AM 40.1419 -101.2740 83° East 502 578 33,500 984 Climbing FlightAware ADS-B
Fri 09:22:15 AM 40.1506 -101.1820 83° East 498 573 34,000 720 Climbing FlightAware ADS-B
Fri 09:23:00 AM 40.1632 -101.0480 83° East 498 573 34,400 525 Climbing FlightAware ADS-B
Fri 09:23:35 AM 40.1697 -100.9686 83° East 500 575 34,700 375 Climbing Denver Center
Fri 09:24:36 AM 40.1875 -100.7706 83° East 496 571 35,000 148 Climbing Denver Center
Fri 09:25:37 AM 40.1958 -100.5983 86° East 497 572 35,000  Level Denver Center
Fri 09:26:38 AM 40.1722 -100.3964 99° East 507 583 35,000  Level Denver Center
Fri 09:27:39 AM 40.1433 -100.2233 102° East 511 588 35,000  Level Denver Center
Fri 09:28:41 AM 40.1167 -100.0533 102° East 504 580 35,000  Level Denver Center
Fri 09:29:42 AM 40.0828 -99.8572 103° East 508 585 35,000  Level Denver Center
Fri 09:30:43 AM 40.0539 -99.6800 102° East 503 579 35,000  Level Denver Center
Fri 09:31:44 AM 40.0236 -99.5003 102° East 507 583 35,000  Level Denver Center
Fri 09:32:45 AM 39.9933 -99.3228 102° East 505 581 35,000  Level Denver Center
Fri 09:33:46 AM 39.9628 -99.1469 103° East 501 577 35,000  Level Denver Center
Fri 09:39:17 AM 39.7820 -98.1660 103° East 496 571 35,000  Level FlightAware ADS-B
Fri 09:39:59 AM 39.7510 -98.0430 108° East 496 571 35,000  Level FlightAware ADS-B
Fri 09:40:39 AM 39.7220 -97.9300 108° East 496 571 35,000  Level FlightAware ADS-B
Fri 09:41:21 AM 39.6910 -97.8110 109° East 494 568 35,000  Level FlightAware ADS-B
Fri 09:42:05 AM 39.6590 -97.6900 109° East 492 566 35,000  Level FlightAware ADS-B
Fri 09:42:47 AM 39.6280 -97.5700 109° East 490 564 35,000  Level FlightAware ADS-B
Fri 09:43:29 AM 39.5990 -97.4590 109° East 489 563 35,000  Level FlightAware ADS-B
Fri 09:44:07 AM 39.5710 -97.3530 109° East 490 564 35,000  Level FlightAware ADS-B
Fri 09:44:43 AM 39.5440 -97.2490 109° East 490 564 35,000  Level FlightAware ADS-B
Fri 09:45:25 AM 39.5180 -97.1480 108° East 490 564 35,000  Level FlightAware ADS-B
Fri 09:46:01 AM 39.4960 -97.0630 109° East 490 564 35,000  Level FlightAware ADS-B
Fri 09:46:43 AM 39.4540 -96.9150 110° East 493 567 35,000  Level FlightAware ADS-B
Fri 09:47:21 AM 39.4250 -96.8090 109° East 493 567 35,000  Level FlightAware ADS-B
Fri 09:48:10 AM 39.3900 -96.6790 109° East 493 567 35,000  Level FlightAware ADS-B
Fri 09:48:49 AM 39.3590 -96.5650 109° East 492 566 35,000  Level FlightAware ADS-B
Fri 09:49:33 AM 39.3260 -96.4410 109° East 492 566 35,000  Level FlightAware ADS-B
Fri 09:50:13 AM 39.2960 -96.3340 110° East 492 566 35,000  Level FlightAware ADS-B
Fri 09:50:53 AM 39.2650 -96.2210 109° East 491 565 35,000 78 Level FlightAware ADS-B
Fri 09:51:30 AM 39.2380 -96.1260 110° East 489 563 35,100  Climbing FlightAware ADS-B
Fri 09:52:15 AM 39.2030 -95.9980 109° East 487 560 35,000 -74 Descending FlightAware ADS-B
Fri 09:52:51 AM 39.1750 -95.9000 110° East 486 559 35,000  Level FlightAware ADS-B
Fri 09:53:27 AM 39.1480 -95.8020 110° East 486 559 35,000  Level FlightAware ADS-B
Fri 09:54:11 AM 39.1140 -95.6830 110° East 486 559 35,000  Level FlightAware ADS-B
Fri 09:54:55 AM 39.0800 -95.5620 110° East 487 560 35,000  Level FlightAware ADS-B
Fri 09:55:31 AM 39.0540 -95.4700 110° East 487 560 35,000  Level FlightAware ADS-B
Fri 09:56:03 AM 39.0270 -95.3760 110° East 489 563 35,000  Level FlightAware ADS-B
Fri 09:56:51 AM 38.9900 -95.2470 110° East 491 565 35,000  Level FlightAware ADS-B
Fri 09:57:35 AM 38.9550 -95.1240 110° East 494 568 35,000  Level FlightAware ADS-B
Fri 09:58:15 AM 38.9240 -95.0160 110° East 497 572 35,000 71 Level FlightAware ADS-B
Fri 09:58:59 AM 38.8880 -94.8940 111° Southeast 498 573 35,100 71 Climbing FlightAware ADS-B
Fri 09:59:39 AM 38.8550 -94.7820 111° Southeast 500 575 35,100  Level FlightAware ADS-B
Fri 10:00:19 AM 38.8230 -94.6720 110° East 499 574 35,100  Level FlightAware ADS-B
Fri 10:00:55 AM 38.7940 -94.5720 110° East 499 574 35,100  Level FlightAware ADS-B
Fri 10:01:23 AM 38.7710 -94.4940 111° Southeast 497 572 35,100  Level FlightAware ADS-B
Fri 10:02:09 AM 38.7340 -94.3700 111° Southeast 493 567 35,100 -70 Level FlightAware ADS-B
Fri 10:02:49 AM 38.7010 -94.2590 111° Southeast 490 564 35,000 -71 Descending FlightAware ADS-B
Fri 10:03:34 AM 38.6650 -94.1380 111° Southeast 488 562 35,000  Level FlightAware ADS-B
Fri 10:04:13 AM 38.6510 -94.0250 99° East 494 568 35,000  Level FlightAware ADS-B
Fri 10:04:53 AM 38.6670 -93.9130 80° East 495 570 35,000  Level FlightAware ADS-B
Fri 10:05:29 AM 38.6880 -93.8080 76° East 495 570 35,000  Level FlightAware ADS-B
Fri 10:06:09 AM 38.7100 -93.6940 76° East 498 573 35,000  Level FlightAware ADS-B
Fri 10:06:53 AM 38.7350 -93.5710 75° East 502 578 35,000  Level FlightAware ADS-B
Fri 10:07:31 AM 38.7620 -93.4590 73° East 506 582 35,000  Level FlightAware ADS-B
Fri 10:08:11 AM 38.7930 -93.3480 70° East 509 586 35,000  Level FlightAware ADS-B
Fri 10:08:55 AM 38.8290 -93.2210 70° East 514 592 35,000 75 Level FlightAware ADS-B
Fri 10:09:31 AM 38.8570 -93.1180 71° East 517 595 35,100 79 Climbing FlightAware ADS-B
Fri 10:10:11 AM 38.8890 -93.0020 70° East 516 594 35,100  Level FlightAware ADS-B
Fri 10:10:51 AM 38.9190 -92.8850 72° East 516 594 35,100  Level FlightAware ADS-B
Fri 10:11:33 AM 38.9500 -92.7640 72° East 515 593 35,100 -70 Level FlightAware ADS-B
Fri 10:12:17 AM 38.9830 -92.6360 72° East 513 590 35,000 -70 Descending FlightAware ADS-B
Fri 10:12:59 AM 39.0100 -92.5320 71° East 513 590 35,000  Level FlightAware ADS-B
Fri 10:13:43 AM 39.0390 -92.3860 76° East 510 587 35,000  Level FlightAware ADS-B
Fri 10:14:19 AM 39.0460 -92.2780 85° East 508 585 35,000  Level FlightAware ADS-B
Fri 10:15:28 AM 38.9940 -92.0910 110° East 491 565 35,000  Level FlightAware ADS-B
Fri 10:16:17 AM 38.9410 -91.9800 122° Southeast 492 566 35,000  Level FlightAware ADS-B
Fri 10:17:04 AM 38.8790 -91.8530 122° Southeast 493 567 35,000  Level FlightAware ADS-B
Fri 10:17:45 AM 38.8270 -91.7480 122° Southeast 495 570 35,000  Level FlightAware ADS-B
Fri 10:18:25 AM 38.7790 -91.6490 122° Southeast 496 571 35,000  Level FlightAware ADS-B
Fri 10:19:09 AM 38.7250 -91.5400 122° Southeast 497 572 35,000  Level FlightAware ADS-B
Fri 10:19:44 AM 38.6830 -91.4560 123° Southeast 497 572 35,000  Level FlightAware ADS-B
Fri 10:20:26 AM 38.6300 -91.3490 122° Southeast 500 575 35,000  Level FlightAware ADS-B
Fri 10:21:10 AM 38.5760 -91.2410 123° Southeast 500 575 35,000 81 Level FlightAware ADS-B
Fri 10:21:40 AM 38.5400 -91.1680 122° Southeast 499 574 35,100 82 Climbing FlightAware ADS-B
Fri 10:22:23 AM 38.4860 -91.0600 123° Southeast 495 570 35,100 -67 Level FlightAware ADS-B
Fri 10:23:09 AM 38.4270 -90.9440 123° Southeast 492 566 35,000 -70 Descending FlightAware ADS-B
Fri 10:23:49 AM 38.3780 -90.8460 123° Southeast 489 563 35,000  Level FlightAware ADS-B
Fri 10:24:26 AM 38.3330 -90.7590 123° Southeast 488 562 35,000  Level FlightAware ADS-B
Fri 10:25:11 AM 38.2860 -90.6640 122° Southeast 488 562 35,000  Level FlightAware ADS-B
Fri 10:25:55 AM 38.2310 -90.5550 123° Southeast 488 562 35,000  Level FlightAware ADS-B
Fri 10:26:40 AM 38.1690 -90.4360 124° Southeast 490 564 35,000  Level FlightAware ADS-B
Fri 10:27:25 AM 38.1140 -90.3280 123° Southeast 492 566 35,000  Level FlightAware ADS-B
Fri 10:28:07 AM 38.0670 -90.2380 124° Southeast 492 566 35,000  Level FlightAware ADS-B
Fri 10:28:40 AM 38.0190 -90.1450 123° Southeast 493 567 35,000  Level FlightAware ADS-B
Fri 10:29:23 AM 37.9650 -90.0410 123° Southeast 495 570 35,000  Level FlightAware ADS-B
Fri 10:30:07 AM 37.9110 -89.9360 123° Southeast 497 572 35,000  Level FlightAware ADS-B
Fri 10:30:44 AM 37.8640 -89.8450 123° Southeast 498 573 35,000  Level FlightAware ADS-B
Fri 10:31:33 AM 37.8030 -89.7280 123° Southeast 500 575 35,000  Level FlightAware ADS-B
Fri 10:32:10 AM 37.7630 -89.6510 123° Southeast 500 575 35,000  Level FlightAware ADS-B
Fri 10:33:13 AM 37.6780 -89.4900 124° Southeast 501 577 35,000  Level FlightAware ADS-B
Fri 10:33:54 AM 37.6210 -89.3820 124° Southeast 500 575 35,000  Level FlightAware ADS-B
Fri 10:34:34 AM 37.5690 -89.2840 124° Southeast 498 573 35,000  Level FlightAware ADS-B
Fri 10:35:16 AM 37.5150 -89.1820 124° Southeast 497 572 35,000  Level FlightAware ADS-B
Fri 10:35:57 AM 37.4640 -89.0860 124° Southeast 495 570 35,000  Level FlightAware ADS-B
Fri 10:36:39 AM 37.4100 -88.9850 124° Southeast 492 566 35,000  Level FlightAware ADS-B
Fri 10:37:19 AM 37.3590 -88.8900 124° Southeast 490 564 35,000  Level FlightAware ADS-B
Fri 10:38:04 AM 37.3010 -88.7830 124° Southeast 489 563 35,000  Level FlightAware ADS-B
Fri 10:38:46 AM 37.2480 -88.6840 124° Southeast 487 560 35,000  Level FlightAware ADS-B
Fri 10:39:22 AM 37.2040 -88.6030 124° Southeast 487 560 35,000  Level FlightAware ADS-B
Fri 10:40:07 AM 37.1490 -88.5000 124° Southeast 486 559 35,000  Level FlightAware ADS-B
Fri 10:41:26 AM 37.0460 -88.3110 124° Southeast 490 564 35,000  Level FlightAware ADS-B
Fri 10:42:10 AM 36.9900 -88.2080 124° Southeast 490 564 35,000  Level FlightAware ADS-B
Fri 10:43:28 AM 36.8900 -88.0260 124° Southeast 492 566 35,000 53 Level FlightAware ADS-B
Fri 10:44:04 AM 36.8440 -87.9430 125° Southeast 491 565 35,100  Climbing FlightAware ADS-B
Fri 10:44:49 AM 36.7970 -87.8270 117° Southeast 493 567 35,000 -67 Descending FlightAware ADS-B
Fri 10:45:34 AM 36.7610 -87.7100 111° Southeast 493 567 35,000  Level FlightAware ADS-B
Fri 10:46:13 AM 36.7280 -87.6030 111° Southeast 494 568 35,000  Level FlightAware ADS-B
Fri 10:46:57 AM 36.6920 -87.4860 111° Southeast 493 567 35,000  Level FlightAware ADS-B
Fri 10:47:29 AM 36.6660 -87.4020 111° Southeast 492 566 35,000  Level FlightAware ADS-B
Fri 10:48:13 AM 36.6300 -87.2850 111° Southeast 492 566 35,000  Level FlightAware ADS-B
Fri 10:48:53 AM 36.5970 -87.1810 112° Southeast 491 565 35,000  Level FlightAware ADS-B
Fri 10:49:29 AM 36.5670 -87.0860 111° Southeast 491 565 35,000  Level FlightAware ADS-B
Fri 10:50:13 AM 36.5310 -86.9710 111° Southeast 491 565 35,000  Level FlightAware ADS-B
Fri 10:50:54 AM 36.4980 -86.8640 111° Southeast 490 564 35,000  Level FlightAware ADS-B
Fri 10:51:37 AM 36.4610 -86.7490 112° Southeast 488 562 35,000  Level FlightAware ADS-B
Fri 10:52:19 AM 36.4270 -86.6400 111° Southeast 488 562 35,000 -293 Level FlightAware ADS-B
Fri 10:52:59 AM 36.3930 -86.5350 112° Southeast 486 559 34,600 -714 Descending FlightAware ADS-B
Fri 10:53:43 AM 36.3580 -86.4230 111° Southeast 482 555 34,000 -929 Descending FlightAware ADS-B
Fri 10:54:23 AM 36.3240 -86.3190 112° Southeast 479 551 33,300 -1,000 Descending FlightAware ADS-B
Fri 10:55:01 AM 36.2940 -86.2240 111° Southeast 478 550 32,700 -923 Descending FlightAware ADS-B
Fri 10:55:41 AM 36.2602 -86.1205 112° Southeast 482 555 32,100 -1,000 Descending FlightAware ADS-B
Fri 10:56:13 AM 36.2341 -86.0398 112° Southeast 477 549 31,500 -1,031 Descending FlightAware ADS-B
Fri 10:56:45 AM 36.2076 -85.9584 112° Southeast 472 543 31,000 -353 Descending FlightAware ADS-B
Fri 10:57:38 AM 36.1639 -85.8248 112° Southeast 476 548 31,000  Level FlightAware ADS-B
Fri 10:58:08 AM 36.1392 -85.7485 112° Southeast 476 548 31,000  Level FlightAware ADS-B
Fri 10:58:40 AM 36.1132 -85.6698 112° Southeast 479 551 31,000  Level FlightAware ADS-B
Fri 10:59:10 AM 36.0883 -85.5936 112° Southeast 478 550 31,000  Level FlightAware ADS-B
Fri 10:59:33 AM 36.0694 -85.5351 112° Southeast 477 549 31,000  Level FlightAware ADS-B
Fri 10:59:59 AM 36.0522 -85.4676 107° East 476 548 31,000  Level FlightAware ADS-B
Fri 11:00:29 AM 36.0384 -85.3863 102° East 476 548 31,000  Level FlightAware ADS-B
Fri 11:01:00 AM 36.0306 -85.3043 97° East 475 547 31,000  Level FlightAware ADS-B
Fri 11:01:30 AM 36.0239 -85.2225 96° East 480 552 31,000  Level FlightAware ADS-B
Fri 11:02:01 AM 36.0168 -85.1391 96° East 490 564 31,000  Level FlightAware ADS-B
Fri 11:02:32 AM 36.0093 -85.0521 96° East 493 567 31,000  Level FlightAware ADS-B
Fri 11:03:03 AM 36.0017 -84.9652 96° East 493 567 31,000  Level FlightAware ADS-B
Fri 11:03:34 AM 35.9941 -84.8789 96° East 493 567 31,000  Level FlightAware ADS-B
Fri 11:04:04 AM 35.9869 -84.7929 96° East 493 567 31,000  Level FlightAware ADS-B
Fri 11:04:35 AM 35.9795 -84.7088 96° East 493 567 31,000  Level FlightAware ADS-B
Fri 11:05:05 AM 35.9720 -84.6244 96° East 493 567 31,000  Level FlightAware ADS-B
Fri 11:05:35 AM 35.9645 -84.5404 96° East 492 566 31,000  Level FlightAware ADS-B
Fri 11:06:08 AM 35.9559 -84.4472 96° East 491 565 31,000  Level FlightAware ADS-B
Fri 11:06:44 AM 35.9470 -84.3479 96° East 491 565 31,000 -474 Level FlightAware ADS-B
Fri 11:07:24 AM 35.9370 -84.2376 96° East 495 570 30,400 -943 Descending FlightAware ADS-B
Fri 11:07:54 AM 35.9292 -84.1535 97° East 498 573 29,900 -1,000 Descending FlightAware ADS-B
Fri 11:08:24 AM 35.9212 -84.0670 96° East 501 577 29,400 -900 Descending FlightAware ADS-B
Fri 11:08:54 AM 35.9130 -83.9813 97° East 500 575 29,000 -407 Descending FlightAware ADS-B
Fri 11:09:23 AM 35.9061 -83.8995 96° East 501 577 29,000  Level FlightAware ADS-B
Fri 11:09:55 AM 35.9036 -83.8094 92° East 499 574 29,000  Level FlightAware ADS-B
Fri 11:10:27 AM 35.9021 -83.7191 91° East 496 571 29,000  Level FlightAware ADS-B
Fri 11:10:58 AM 35.9007 -83.6314 91° East 496 571 29,000  Level FlightAware ADS-B
Fri 11:11:30 AM 35.8989 -83.5419 91° East 494 568 29,000  Level FlightAware ADS-B
Fri 11:12:04 AM 35.8968 -83.4458 92° East 493 567 29,000  Level FlightAware ADS-B
Fri 11:12:35 AM 35.8952 -83.3576 91° East 494 568 29,000  Level FlightAware ADS-B
Fri 11:13:10 AM 35.8932 -83.2587 91° East 494 568 29,000 -273 Level FlightAware ADS-B
Fri 11:13:41 AM 35.8911 -83.1723 92° East 495 570 28,700 -762 Descending FlightAware ADS-B
Fri 11:14:13 AM 35.8891 -83.0827 92° East 494 568 28,200 -938 Descending FlightAware ADS-B
Fri 11:14:45 AM 35.8869 -82.9917 92° East 481 554 27,700 -952 Descending FlightAware ADS-B
Fri 11:15:16 AM 35.8849 -82.9104 92° East 468 539 27,200 -984 Descending FlightAware ADS-B
Fri 11:15:46 AM 35.8829 -82.8291 92° East 463 533 26,700 -1,065 Descending FlightAware ADS-B
Fri 11:16:18 AM 35.8808 -82.7461 92° East 459 528 26,100 -977 Descending FlightAware ADS-B
Fri 11:16:29 AM 35.8787 -82.7172 95° East 459 528 26,000 -818 Descending FlightAware ADS-B
Fri 11:16:40 AM 35.8744 -82.6880 100° East 459 528 25,800 -1,429 Descending FlightAware ADS-B
Fri 11:17:11 AM 35.8567 -82.6117 106° East 459 528 25,000 -1,770 Descending FlightAware ADS-B
Fri 11:17:41 AM 35.8389 -82.5365 106° East 453 521 24,000 -2,066 Descending FlightAware ADS-B
Fri 11:18:12 AM 35.8212 -82.4612 106° East 446 513 22,900 -2,066 Descending FlightAware ADS-B
Fri 11:18:42 AM 35.8035 -82.3870 106° East 436 502 21,900 -2,000 Descending FlightAware ADS-B
Fri 11:19:12 AM 35.7865 -82.3165 107° East 427 491 20,900 -2,066 Descending FlightAware ADS-B
Fri 11:19:43 AM 35.7697 -82.2452 106° East 420 483 19,800 -2,066 Descending FlightAware ADS-B
Fri 11:20:13 AM 35.7529 -82.1768 107° East 413 475 18,800 -750 Descending FlightAware ADS-B
Fri 11:20:47 AM 35.7390 -82.1150 105° East 414 476 19,000 -1,690 Climbing FlightAware ADS-B
Fri 11:23:07 AM 35.6690 -81.8300 107° East 320 368 13,900 -2,097 Descending FlightAware ADS-B
Fri 11:23:53 AM 35.6630 -81.8080 109° East 315 362 12,500 -1,807 Descending FlightAware ADS-B
Fri 11:24:30 AM 35.6330 -81.6840 107° East 297 342 11,400 -1,169 Descending FlightAware ADS-B
Fri 11:25:10 AM 35.6170 -81.6200 107° East 306 352 11,000 -514 Descending FlightAware ADS-B
Fri 11:25:40 AM 35.5990 -81.5720 115° Southeast 302 348 10,800 -182 Descending FlightAware ADS-B
Fri 11:26:16 AM 35.5690 -81.5250 128° Southeast 299 344 10,800 -444 Level FlightAware ADS-B
Fri 11:26:34 AM 35.5550 -81.4960 121° Southeast 299 344 10,400 -1,625 Descending FlightAware ADS-B
Fri 11:27:04 AM 35.5490 -81.4460 98° East 299 344 9,500 -1,552 Descending FlightAware ADS-B
Fri 11:27:32 AM 35.5440 -81.4010 98° East 296 341 8,900 -1,364 Descending FlightAware ADS-B
Fri 11:27:48 AM 35.5410 -81.3740 98° East 295 339 8,500 -585 Descending FlightAware ADS-B
Fri 11:28:13 AM 35.5370 -81.3390 98° East 295 339 8,500  Level FlightAware ADS-B
Fri 11:28:37 AM 35.5340 -81.3050 96° East 295 339 8,500  Level FlightAware ADS-B
Fri 11:29:02 AM 35.5300 -81.2700 98° East 295 339 8,500 -2,165 Level FlightAware ADS-B
Fri 11:30:14 AM 35.5140 -81.1410 99° East 263 303 5,000 -2,121 Descending FlightAware ADS-B
Fri 11:30:41 AM 35.5100 -81.1070 98° East 263 303 5,000 -226 Level FlightAware ADS-B
Fri 11:31:07 AM 35.5030 -81.0710 103° East 233 268 4,800 -393 Descending FlightAware ADS-B
Fri 11:31:42 AM 35.4890 -81.0280 112° Southeast 224 258 4,600 -610 Descending FlightAware ADS-B
Fri 11:32:06 AM 35.4760 -81.0050 125° Southeast 207 238 4,200 -882 Descending FlightAware ADS-B
Fri 11:32:16 AM 35.4670 -80.9980 148° Southeast 198 228 4,100 -643 Descending FlightAware ADS-B
Fri 11:32:34 AM 35.4530 -80.9900 155° Southeast 187 215 3,900 -600 Descending FlightAware ADS-B
Fri 11:32:46 AM 35.4430 -80.9870 166° South 177 204 3,800 -250 Descending FlightAware ADS-B
Fri 11:32:58 AM 35.4330 -80.9860 175° South 176 203 3,800  Level FlightAware ADS-B
Fri 11:33:29 AM 35.4100 -80.9830 174° South 166 191 3,800 -197 Level FlightAware ADS-B
Fri 11:33:59 AM 35.3850 -80.9810 176° South 166 191 3,600 -621 Descending FlightAware ADS-B
Fri 11:34:27 AM 35.3660 -80.9790 175° South 162 186 3,200 -923 Descending FlightAware ADS-B
Fri 11:34:51 AM 35.3470 -80.9780 178° South 160 184 2,800 -808 Descending FlightAware ADS-B
Fri 11:35:19 AM 35.3270 -80.9760 175° South 159 183 2,500 -750 Descending FlightAware ADS-B
Fri 11:35:31 AM 35.3190 -80.9750 174° South 156 180 2,300 -900 Descending FlightAware ADS-B
Fri 11:35:59 AM 35.2990 -80.9740 178° South 148 170 1,900 -774 Descending FlightAware ADS-B
Fri 11:36:33 AM 35.2750 -80.9720 176° South 144 166 1,500 -692 Descending FlightAware ADS-B
Fri 11:36:51 AM 35.2640 -80.9710 176° South 143 165 1,300 -612 Descending FlightAware ADS-B
Fri 11:37:22 AM 35.2450 -80.9690 175° South 141 162 1,000 -305 Descending FlightAware ADS-B
Fri 11:37:50 AM 35.2290 -80.9680 177° South 141 162 1,000  Level FlightAware ADS-B

Login

Don't have an account? Register now (free) for customized features, flight alerts, and more!